Time;durP1;ratioP1;P1;durP2;ratioP2;P2;SDS_P1;SDS_P2;PMS_P1;PMS_P2;Temp;Humidity;BMP_temperature;BMP_pressure;BME280_temperature;BME280_humidity;BME280_pressure;Samples;Min_cycle;Max_cycle;Signal;HPM_P1;HPM_P2
2022/05/19 00:02:24;;;;;;;2.05;1.83;;;15.10;71.20;;;;;;5043190;28;20469;-80
2022/05/19 00:04:50;;;;;;;1.73;1.63;;;15.00;70.70;;;;;;5042519;28;20103;-81
2022/05/19 00:07:16;;;;;;;3.95;1.88;;;15.00;70.90;;;;;;5042903;28;20049;-79
2022/05/19 00:09:43;;;;;;;3.75;2.10;;;15.00;71.10;;;;;;5042994;28;20029;-81
2022/05/19 00:12:16;;;;;;;2.83;1.58;;;15.00;71.30;;;;;;5043426;28;20021;-81
2022/05/19 00:14:41;;;;;;;1.92;1.73;;;14.90;71.60;;;;;;5042956;28;20101;-81
2022/05/19 00:17:07;;;;;;;1.80;1.40;;;14.90;71.90;;;;;;5041978;28;20049;-81
2022/05/19 00:19:33;;;;;;;2.03;1.90;;;14.90;72.10;;;;;;5040822;28;20032;-80
2022/05/19 00:22:02;;;;;;;2.17;1.65;;;14.80;72.20;;;;;;5040294;28;20266;-79
2022/05/19 00:24:29;;;;;;;2.10;1.45;;;14.80;72.50;;;;;;5039914;28;20111;-80
2022/05/19 00:26:54;;;;;;;2.22;1.70;;;14.80;72.60;;;;;;5041221;28;20036;-80
2022/05/19 00:29:20;;;;;;;1.60;1.50;;;14.70;72.70;;;;;;5042784;28;20030;-80
2022/05/19 00:31:46;;;;;;;1.60;1.40;;;14.70;73.00;;;;;;5039406;28;20029;-80
2022/05/19 00:34:11;;;;;;;2.45;1.80;;;14.60;73.20;;;;;;5038364;28;20108;-82
2022/05/19 00:36:37;;;;;;;2.92;1.40;;;14.60;73.40;;;;;;5038628;28;20018;-79
2022/05/19 00:39:04;;;;;;;2.10;2.00;;;14.50;73.50;;;;;;5042069;28;20021;-80
2022/05/19 00:41:30;;;;;;;2.15;1.70;;;14.50;73.70;;;;;;5045142;28;20040;-83
2022/05/19 00:44:04;;;;;;;1.70;1.50;;;14.40;74.00;;;;;;5056001;28;20229;-83
2022/05/19 00:46:42;;;;;;;2.25;1.65;;;14.40;74.20;;;;;;5049769;28;20077;-80
2022/05/19 00:49:25;;;;;;;3.17;1.50;;;14.40;74.50;;;;;;5044027;28;20112;-80
2022/05/19 00:51:53;;;;;;;2.08;1.60;;;14.30;74.80;;;;;;5037586;28;20039;-81
2022/05/19 00:54:26;;;;;;;2.60;1.90;;;14.30;75.00;;;;;;5040303;28;20029;-79
2022/05/19 00:56:55;;;;;;;1.95;1.73;;;14.30;75.10;;;;;;5038038;28;20029;-80
2022/05/19 00:59:40;;;;;;;2.22;1.70;;;14.20;75.30;;;;;;5039420;28;20051;-80
2022/05/19 01:02:09;;;;;;;1.98;1.70;;;14.20;75.50;;;;;;5048566;28;20037;-81
2022/05/19 01:04:55;;;;;;;2.40;1.58;;;14.20;75.90;;;;;;5055067;28;20065;-81
2022/05/19 01:07:27;;;;;;;2.05;1.40;;;14.20;76.20;;;;;;5053839;28;20053;-81
2022/05/19 01:09:56;;;;;;;2.10;1.50;;;14.20;76.30;;;;;;5055423;28;20045;-85
2022/05/19 01:12:22;;;;;;;2.65;1.92;;;14.10;76.30;;;;;;5048437;28;20144;-81
2022/05/19 01:14:48;;;;;;;4.82;2.10;;;14.10;76.50;;;;;;5042526;28;20032;-81
2022/05/19 01:17:14;;;;;;;2.72;1.63;;;14.10;76.50;;;;;;5042134;28;20389;-81
2022/05/19 01:19:46;;;;;;;2.95;1.83;;;14.00;76.70;;;;;;5042047;28;20026;-80
2022/05/19 01:22:15;;;;;;;;;;;14.00;76.90;;;;;;5037812;28;20013;-80
2022/05/19 01:25:14;;;;;;;1.70;1.60;;;14.00;77.30;;;;;;5037854;28;20357;-81
2022/05/19 01:27:40;;;;;;;1.73;1.55;;;14.00;77.40;;;;;;4965916;28;20035;-79
2022/05/19 01:30:08;;;;;;;2.97;1.77;;;13.90;77.50;;;;;;5035688;28;20021;-79
2022/05/19 01:32:35;;;;;;;2.03;1.75;;;13.90;77.80;;;;;;5036820;28;20033;-80
2022/05/19 01:35:02;;;;;;;1.98;1.77;;;13.80;77.80;;;;;;5037629;28;20080;-81
2022/05/19 01:37:29;;;;;;;2.00;1.80;;;13.80;78.10;;;;;;5038912;28;20049;-80
2022/05/19 01:40:03;;;;;;;2.17;1.80;;;13.80;78.40;;;;;;5037891;28;20057;-78
2022/05/19 01:42:48;;;;;;;2.55;1.85;;;13.70;78.50;;;;;;5036361;28;20083;-79
2022/05/19 01:45:32;;;;;;;2.22;1.77;;;13.70;78.70;;;;;;5038806;28;20478;-79
2022/05/19 01:48:08;;;;;;;1.70;1.60;;;13.60;79.00;;;;;;5037670;28;20026;-80
2022/05/19 01:50:46;;;;;;;2.50;1.90;;;13.60;79.30;;;;;;5037563;28;20037;-80
2022/05/19 01:53:25;;;;;;;2.50;1.60;;;13.60;79.50;;;;;;5038896;28;20025;-80
2022/05/19 01:56:19;;;;;;;1.85;1.75;;;13.60;79.80;;;;;;5038584;28;20024;-81
2022/05/19 01:59:12;;;;;;;2.30;1.80;;;13.60;80.00;;;;;;5039758;28;20108;-80
2022/05/19 02:01:42;;;;;;;2.65;1.67;;;13.60;79.70;;;;;;5039829;28;20026;-81
2022/05/19 02:04:17;;;;;;;2.03;1.88;;;13.60;79.70;;;;;;5020094;28;20088;-81
2022/05/19 02:06:52;;;;;;;2.10;1.90;;;13.50;80.30;;;;;;5038709;28;20021;-80
2022/05/19 02:09:27;;;;;;;2.60;2.03;;;13.60;79.70;;;;;;5041761;28;20056;-81
2022/05/19 02:11:56;;;;;;;3.42;1.92;;;13.60;79.90;;;;;;5039867;28;20022;-81
2022/05/19 02:14:33;;;;;;;2.60;1.80;;;13.60;80.10;;;;;;5040822;28;20064;-80
2022/05/19 02:17:02;;;;;;;2.30;1.70;;;13.60;80.30;;;;;;5040237;28;20025;-79
2022/05/19 02:19:35;;;;;;;1.77;1.60;;;13.50;80.40;;;;;;5042702;28;20482;-82
2022/05/19 02:22:03;;;;;;;1.63;1.52;;;13.40;80.80;;;;;;5041816;28;20478;-79
2022/05/19 02:24:35;;;;;;;1.85;1.73;;;13.40;81.10;;;;;;5042070;28;20036;-79
2022/05/19 02:27:25;;;;;;;2.20;2.00;;;13.40;81.50;;;;;;5046304;28;20099;-84
2022/05/19 02:29:53;;;;;;;3.38;1.98;;;13.30;81.90;;;;;;5039392;28;20646;-80
2022/05/19 02:32:19;;;;;;;2.53;1.80;;;13.30;82.20;;;;;;5024405;28;20076;-81
2022/05/19 02:34:45;;;;;;;3.20;2.13;;;13.30;82.60;;;;;;5024892;28;20025;-81
2022/05/19 02:37:10;;;;;;;1.75;1.50;;;13.20;82.90;;;;;;5040968;28;20532;-80
2022/05/19 02:39:36;;;;;;;2.33;1.80;;;13.20;83.20;;;;;;5056646;28;20044;-79
2022/05/19 02:42:02;;;;;;;2.50;2.00;;;13.20;83.60;;;;;;5040570;28;20466;-80
2022/05/19 02:44:27;;;;;;;2.15;1.60;;;13.10;83.90;;;;;;5043085;28;20025;-83
2022/05/19 02:46:53;;;;;;;2.03;1.60;;;13.10;84.40;;;;;;5058431;28;20038;-80
2022/05/19 02:49:19;;;;;;;1.92;1.73;;;13.10;84.80;;;;;;5039147;28;20056;-82
2022/05/19 02:51:44;;;;;;;2.08;1.95;;;13.00;85.00;;;;;;5039799;28;20041;-80
2022/05/19 02:54:10;;;;;;;2.72;2.17;;;13.00;85.30;;;;;;5039568;28;20030;-80
2022/05/19 02:56:37;;;;;;;2.50;1.85;;;13.00;85.60;;;;;;5039473;28;20026;-80
2022/05/19 02:59:02;;;;;;;2.45;2.25;;;12.90;85.90;;;;;;5038840;28;20033;-79
2022/05/19 03:01:28;;;;;;;2.58;2.05;;;12.90;86.00;;;;;;5038112;28;20125;-79
2022/05/19 03:03:54;;;;;;;4.30;2.45;;;12.90;86.10;;;;;;5038194;28;20389;-80
2022/05/19 03:06:19;;;;;;;3.88;2.20;;;12.90;86.50;;;;;;5039173;28;20030;-80
2022/05/19 03:08:45;;;;;;;2.45;2.25;;;12.90;86.60;;;;;;5021344;28;20105;-79
2022/05/19 03:11:11;;;;;;;3.92;2.13;;;12.80;86.60;;;;;;5039864;28;20030;-80
2022/05/19 03:13:36;;;;;;;3.00;2.22;;;12.80;86.80;;;;;;5039135;28;20021;-80
2022/05/19 03:16:07;;;;;;;3.88;2.63;;;12.80;87.00;;;;;;5040816;28;20059;-81
2022/05/19 03:18:32;;;;;;;3.70;3.20;;;12.80;87.00;;;;;;5042215;28;20029;-82
2022/05/19 03:20:58;;;;;;;4.28;2.65;;;12.70;87.20;;;;;;5041982;28;20021;-81
2022/05/19 03:23:29;;;;;;;3.53;2.40;;;12.70;87.40;;;;;;5043367;28;20025;-82
2022/05/19 03:25:59;;;;;;;2.38;2.17;;;12.70;87.70;;;;;;5022376;28;20049;-80
2022/05/19 03:28:25;;;;;;;2.15;1.95;;;12.70;87.80;;;;;;5021618;28;20033;-81
2022/05/19 03:30:50;;;;;;;3.30;2.28;;;12.70;88.00;;;;;;5021600;28;20026;-81
2022/05/19 03:33:16;;;;;;;2.83;2.03;;;12.70;88.00;;;;;;5004066;28;20386;-80
2022/05/19 03:35:42;;;;;;;3.67;2.00;;;12.70;88.10;;;;;;5036090;28;20100;-80
2022/05/19 03:38:08;;;;;;;3.38;1.85;;;12.70;88.30;;;;;;5039318;28;20036;-80
2022/05/19 03:40:34;;;;;;;2.38;1.90;;;12.70;88.60;;;;;;5039488;28;20021;-81
2022/05/19 03:43:00;;;;;;;2.60;2.30;;;12.70;89.00;;;;;;5039704;28;20489;-80
2022/05/19 03:45:26;;;;;;;2.08;1.70;;;12.70;88.90;;;;;;5042582;28;20025;-80
2022/05/19 03:47:52;;;;;;;2.15;1.95;;;12.70;89.20;;;;;;5042699;28;20041;-80
2022/05/19 03:50:17;;;;;;;2.50;1.70;;;12.70;89.40;;;;;;5040405;28;20030;-79
2022/05/19 03:52:43;;;;;;;2.58;1.55;;;12.80;89.60;;;;;;5043322;28;20055;-80
2022/05/19 03:55:12;;;;;;;3.67;1.75;;;12.80;89.50;;;;;;5037941;28;20025;-80
2022/05/19 03:57:38;;;;;;;2.78;1.60;;;12.90;89.50;;;;;;5038570;28;20029;-81
2022/05/19 04:00:05;;;;;;;2.03;1.88;;;12.90;89.30;;;;;;5023323;28;20040;-81
2022/05/19 04:02:33;;;;;;;2.22;2.00;;;12.90;89.10;;;;;;5036822;28;20029;-79
2022/05/19 04:04:59;;;;;;;2.67;2.13;;;12.90;89.30;;;;;;5039398;28;20030;-82
2022/05/19 04:07:25;;;;;;;2.03;1.80;;;12.90;89.30;;;;;;5039496;28;20028;-83
2022/05/19 04:09:50;;;;;;;2.00;1.77;;;12.90;89.20;;;;;;5039503;28;20026;-81
2022/05/19 04:12:20;;;;;;;1.80;1.70;;;13.00;89.20;;;;;;5030054;28;20018;-81
2022/05/19 04:14:46;;;;;;;2.33;2.10;;;13.10;88.90;;;;;;5018818;28;20037;-79
2022/05/19 04:17:12;;;;;;;1.98;1.80;;;13.20;88.50;;;;;;5020585;28;20022;-81
2022/05/19 04:19:38;;;;;;;2.28;2.08;;;13.30;88.00;;;;;;5020491;28;20055;-81
2022/05/19 04:22:04;;;;;;;1.95;1.80;;;13.40;87.00;;;;;;5021226;28;20108;-81
2022/05/19 04:24:40;;;;;;;2.10;1.80;;;13.40;86.10;;;;;;5004206;28;20030;-82
2022/05/19 04:27:06;;;;;;;3.05;1.95;;;13.40;85.60;;;;;;5013427;28;20026;-81
2022/05/19 04:29:32;;;;;;;2.25;2.05;;;13.50;85.20;;;;;;5044149;28;20028;-88
2022/05/19 04:31:58;;;;;;;2.58;1.88;;;13.60;84.80;;;;;;5039925;28;20056;-80
2022/05/19 04:34:23;;;;;;;2.90;2.13;;;13.60;84.40;;;;;;5042260;28;20458;-80
2022/05/19 04:36:49;;;;;;;2.67;1.95;;;13.70;84.10;;;;;;5039162;28;20505;-80
2022/05/19 04:39:15;;;;;;;2.65;1.73;;;13.70;83.80;;;;;;5039801;28;20016;-79
2022/05/19 04:41:40;;;;;;;4.82;2.00;;;13.80;83.50;;;;;;5042140;28;20018;-80
2022/05/19 04:44:06;;;;;;;3.38;1.90;;;13.80;83.20;;;;;;5039606;28;20030;-84
2022/05/19 04:46:32;;;;;;;3.90;1.85;;;13.90;83.00;;;;;;5039429;28;20049;-81
2022/05/19 04:48:58;;;;;;;2.33;1.95;;;14.00;83.00;;;;;;5039003;28;20029;-83
2022/05/19 04:51:23;;;;;;;1.95;1.75;;;14.00;82.50;;;;;;5038901;28;20470;-81
2022/05/19 04:53:49;;;;;;;1.73;1.50;;;14.10;82.30;;;;;;5039859;28;20021;-82
2022/05/19 04:56:15;;;;;;;4.82;2.35;;;14.20;81.90;;;;;;5041582;28;20068;-83
2022/05/19 04:58:40;;;;;;;2.83;2.03;;;14.20;81.60;;;;;;5039855;28;20429;-82
2022/05/19 05:01:06;;;;;;;1.70;1.60;;;14.10;81.70;;;;;;5040956;28;20159;-81
2022/05/19 05:03:32;;;;;;;2.60;2.03;;;14.20;81.90;;;;;;5040647;28;20044;-81
2022/05/19 05:05:57;;;;;;;2.63;2.17;;;14.30;81.90;;;;;;5040416;28;20029;-81
2022/05/19 05:08:23;;;;;;;8.32;2.40;;;14.50;81.40;;;;;;5052689;28;20034;-86
2022/05/19 05:10:49;;;;;;;3.45;2.22;;;15.20;80.70;;;;;;5057408;28;20483;-90
2022/05/19 05:13:15;;;;;;;4.65;2.30;;;17.40;75.10;;;;;;5056860;28;20029;-85
2022/05/19 05:15:42;;;;;;;4.10;2.80;;;19.10;67.20;;;;;;5057226;28;20025;-87
2022/05/19 05:18:09;;;;;;;3.33;1.90;;;19.20;64.30;;;;;;5036677;28;20096;-80
2022/05/19 05:20:38;;;;;;;3.80;2.20;;;19.70;63.60;;;;;;5024889;28;20525;-83
2022/05/19 05:23:04;;;;;;;2.13;1.70;;;19.80;62.60;;;;;;5024802;28;20020;-83
2022/05/19 05:25:29;;;;;;;2.88;2.00;;;20.30;61.30;;;;;;5042203;28;20029;-82
2022/05/19 05:27:58;;;;;;;2.83;2.35;;;19.90;60.90;;;;;;5026977;28;20022;-88
2022/05/19 05:30:25;;;;;;;3.47;2.15;;;19.50;62.20;;;;;;5027209;28;20025;-82
2022/05/19 05:32:51;;;;;;;2.83;2.00;;;20.80;62.90;;;;;;5041479;28;20037;-83
2022/05/19 05:35:18;;;;;;;3.17;1.85;;;23.60;57.40;;;;;;5043494;28;20021;-84
2022/05/19 05:37:43;;;;;;;2.78;1.90;;;26.40;52.00;;;;;;5042550;28;20064;-81
2022/05/19 05:40:11;;;;;;;1.90;1.73;;;27.80;47.00;;;;;;5025048;28;20433;-85
2022/05/19 05:42:38;;;;;;;1.95;1.83;;;28.30;45.70;;;;;;5042827;28;20026;-81
2022/05/19 05:45:05;;;;;;;1.67;1.58;;;29.30;44.30;;;;;;5044112;28;20025;-83
2022/05/19 05:47:31;;;;;;;2.45;1.80;;;30.40;43.20;;;;;;5026752;28;20037;-86
2022/05/19 05:49:57;;;;;;;2.08;1.80;;;31.60;41.30;;;;;;5030973;28;20025;-81
2022/05/19 05:52:22;;;;;;;1.63;1.52;;;31.40;40.40;;;;;;5025566;28;20116;-84
2022/05/19 05:54:48;;;;;;;2.72;2.22;;;32.00;39.90;;;;;;5024571;28;20079;-81
2022/05/19 05:57:17;;;;;;;3.28;2.03;;;31.40;40.20;;;;;;5041874;28;20417;-81
2022/05/19 05:59:42;;;;;;;3.05;2.15;;;31.70;39.80;;;;;;5041101;28;20033;-83
2022/05/19 06:02:08;;;;;;;2.88;1.98;;;31.30;39.20;;;;;;5042803;28;20072;-82
2022/05/19 06:04:34;;;;;;;2.25;1.90;;;30.60;40.00;;;;;;5044222;28;20496;-80
2022/05/19 06:07:00;;;;;;;1.98;1.70;;;30.90;40.30;;;;;;5051388;28;20086;-81
2022/05/19 06:09:26;;;;;;;4.20;1.95;;;31.40;40.10;;;;;;5051412;28;20025;-83
2022/05/19 06:11:52;;;;;;;2.08;1.60;;;31.20;40.00;;;;;;5051201;28;20030;-81
2022/05/19 06:14:18;;;;;;;1.92;1.65;;;32.00;39.90;;;;;;5029586;28;20045;-80
2022/05/19 06:16:44;;;;;;;2.33;2.00;;;33.10;38.60;;;;;;5040943;28;20057;-83
2022/05/19 06:19:10;;;;;;;3.60;2.00;;;33.00;37.70;;;;;;5040293;28;20018;-84
2022/05/19 06:21:39;;;;;;;2.90;2.00;;;32.20;38.20;;;;;;5041747;28;20014;-84
2022/05/19 06:24:08;;;;;;;3.00;1.80;;;31.70;39.00;;;;;;5040188;28;20045;-82
2022/05/19 06:26:38;;;;;;;2.03;1.80;;;32.40;39.10;;;;;;5057215;28;20044;-83
2022/05/19 06:29:04;;;;;;;2.58;1.75;;;33.20;38.70;;;;;;5040718;28;20593;-83
2022/05/19 06:31:31;;;;;;;3.20;2.10;;;33.80;37.30;;;;;;5040858;28;20022;-83
2022/05/19 06:33:58;;;;;;;2.25;2.05;;;32.90;37.40;;;;;;5043599;28;20034;-83
2022/05/19 06:36:24;;;;;;;2.55;1.88;;;32.10;38.80;;;;;;5052929;28;20028;-84
2022/05/19 06:38:50;;;;;;;2.20;1.90;;;33.00;38.80;;;;;;5048174;28;20100;-84
2022/05/19 06:44:00;;;;;;;2.03;1.77;;;34.70;37.00;;;;;;5037154;28;20390;-83
2022/05/19 06:46:26;;;;;;;2.00;1.80;;;34.00;37.00;;;;;;5044071;28;20022;-84
2022/05/19 06:48:52;;;;;;;3.60;1.95;;;33.80;37.40;;;;;;5044084;28;20615;-83
2022/05/19 06:51:18;;;;;;;2.28;1.77;;;34.40;37.30;;;;;;5033117;28;20151;-83
2022/05/19 06:53:44;;;;;;;3.33;1.77;;;35.10;37.30;;;;;;5011435;28;20021;-83
2022/05/19 06:56:10;;;;;;;3.42;1.92;;;35.60;36.20;;;;;;5042189;28;20045;-83
2022/05/19 06:58:36;;;;;;;2.00;1.80;;;35.60;36.10;;;;;;5042357;28;20029;-83
2022/05/19 07:01:05;;;;;;;2.22;2.03;;;35.80;36.20;;;;;;5044272;28;20033;-82
2022/05/19 07:03:31;;;;;;;2.50;1.80;;;36.30;36.00;;;;;;5039452;28;20082;-83
2022/05/19 07:05:57;;;;;;;2.67;2.00;;;35.80;35.50;;;;;;5041049;28;20034;-83
2022/05/19 07:08:28;;;;;;;2.17;2.08;;;33.00;36.50;;;;;;5040071;28;20095;-82
2022/05/19 07:10:53;;;;;;;3.30;1.80;;;29.60;39.80;;;;;;5029071;28;20033;-81
2022/05/19 07:13:20;;;;;;;3.35;1.92;;;26.80;43.80;;;;;;5044103;28;20057;-82
2022/05/19 07:15:45;;;;;;;1.95;1.85;;;24.90;47.50;;;;;;5040569;28;20029;-82
2022/05/19 07:18:12;;;;;;;3.58;2.05;;;23.70;50.50;;;;;;5040355;28;20041;-83
2022/05/19 07:20:43;;;;;;;4.45;1.83;;;22.70;53.00;;;;;;5040683;28;20021;-82
2022/05/19 07:23:31;;;;;;;3.72;2.00;;;22.00;55.10;;;;;;5056513;28;20033;-82
2022/05/19 07:25:57;;;;;;;2.50;2.10;;;21.60;56.60;;;;;;5035696;28;20026;-82
2022/05/19 07:28:23;;;;;;;2.00;1.90;;;21.30;57.80;;;;;;5024756;28;20029;-83
2022/05/19 07:30:49;;;;;;;2.60;2.35;;;21.10;58.60;;;;;;5008838;28;20089;-81
2022/05/19 07:33:15;;;;;;;2.40;2.20;;;21.00;59.30;;;;;;5039526;28;20021;-82
2022/05/19 07:35:45;;;;;;;2.33;2.05;;;21.00;60.50;;;;;;5039950;28;20025;-83
2022/05/19 07:38:10;;;;;;;3.45;1.98;;;20.90;60.20;;;;;;5039005;28;20021;-82
2022/05/19 07:40:36;;;;;;;3.33;2.50;;;20.90;60.60;;;;;;5040099;28;20040;-82
2022/05/19 07:45:46;;;;;;;3.25;2.50;;;20.90;61.30;;;;;;5043059;28;20140;-81
2022/05/19 07:48:12;;;;;;;4.20;2.58;;;21.00;61.50;;;;;;5041952;28;20060;-83
2022/05/19 07:50:38;;;;;;;4.22;2.40;;;21.00;61.60;;;;;;5040364;28;20030;-83
2022/05/19 07:53:04;;;;;;;2.88;2.65;;;21.10;61.70;;;;;;5041021;28;20044;-82
2022/05/19 07:55:29;;;;;;;4.25;3.03;;;21.20;61.60;;;;;;5040748;28;20053;-81
2022/05/19 07:57:56;;;;;;;2.58;2.30;;;21.30;61.60;;;;;;5023203;28;20091;-82
2022/05/19 08:00:21;;;;;;;3.95;2.83;;;21.40;61.40;;;;;;5043236;28;20385;-83
2022/05/19 08:02:47;;;;;;;5.13;2.95;;;21.50;61.50;;;;;;5041545;28;20033;-84
2022/05/19 08:05:13;;;;;;;1.95;1.85;;;21.60;61.30;;;;;;5046095;28;20031;-83
2022/05/19 08:07:40;;;;;;;2.22;2.03;;;21.80;61.10;;;;;;5024041;28;20466;-82
2022/05/19 08:10:23;;;;;;;5.82;2.30;;;21.90;61.00;;;;;;5024889;28;20121;-83
2022/05/19 08:15:35;;;;;;;3.65;2.50;;;22.10;60.80;;;;;;5032043;28;20036;-83
2022/05/19 08:18:06;;;;;;;2.85;2.10;;;22.30;60.80;;;;;;5040175;28;20025;-80
2022/05/19 08:20:33;;;;;;;2.88;2.50;;;22.40;60.80;;;;;;5038896;28;20044;-82
2022/05/19 08:22:59;;;;;;;2.92;2.33;;;22.70;60.30;;;;;;5041855;28;20029;-82
2022/05/19 08:25:26;;;;;;;2.58;2.35;;;22.90;59.70;;;;;;5042920;28;20112;-83
2022/05/19 08:27:53;;;;;;;3.80;2.72;;;23.10;59.00;;;;;;5040548;28;20026;-82
2022/05/19 08:30:20;;;;;;;3.17;2.28;;;23.30;58.60;;;;;;5042986;28;20091;-86
2022/05/19 08:32:46;;;;;;;4.30;2.60;;;23.50;58.00;;;;;;5041627;28;20045;-82
2022/05/19 08:35:12;;;;;;;3.78;2.75;;;23.70;57.50;;;;;;5043399;28;20029;-80
2022/05/19 08:37:38;;;;;;;10.48;4.15;;;23.90;57.00;;;;;;5043571;28;20036;-82
2022/05/19 08:40:04;;;;;;;6.45;2.92;;;24.00;56.20;;;;;;5043697;28;20036;-82
2022/05/19 08:42:34;;;;;;;5.22;3.00;;;24.10;55.70;;;;;;5043921;28;20031;-81
2022/05/19 08:45:03;;;;;;;6.85;3.22;;;24.00;55.90;;;;;;5042835;28;20053;-79
2022/05/19 08:47:37;;;;;;;5.30;2.70;;;24.10;55.40;;;;;;5045836;28;20029;-82
2022/05/19 08:50:04;;;;;;;3.92;2.50;;;24.10;55.40;;;;;;5041797;28;20022;-83
2022/05/19 08:52:43;;;;;;;2.97;2.40;;;24.30;55.30;;;;;;5042217;28;20036;-83
2022/05/19 08:55:15;;;;;;;4.10;2.80;;;24.50;55.10;;;;;;5033810;28;20037;-82
2022/05/19 08:57:45;;;;;;;3.15;2.75;;;24.70;54.70;;;;;;5026722;28;20060;-78
2022/05/19 09:00:19;;;;;;;4.77;3.37;;;24.90;54.30;;;;;;5055967;28;20037;-79
2022/05/19 09:03:04;;;;;;;3.53;2.13;;;25.00;53.30;;;;;;5056341;28;20264;-78
2022/05/19 09:05:51;;;;;;;3.47;2.58;;;25.20;53.30;;;;;;5056041;28;20033;-78
2022/05/19 09:08:40;;;;;;;2.90;2.40;;;25.50;53.20;;;;;;5054447;28;20029;-79
2022/05/19 09:11:38;;;;;;;3.00;2.40;;;25.70;52.70;;;;;;5054053;28;20087;-81
2022/05/19 09:14:21;;;;;;;4.10;3.03;;;25.90;52.60;;;;;;5044354;28;20025;-81
2022/05/19 09:16:48;;;;;;;3.28;2.15;;;26.20;51.90;;;;;;5052074;28;20028;-81
2022/05/19 09:19:25;;;;;;;2.50;2.30;;;26.30;51.10;;;;;;5051456;28;20611;-81
2022/05/19 09:22:15;;;;;;;3.70;2.72;;;26.40;50.90;;;;;;5050718;28;20037;-80
2022/05/19 09:24:44;;;;;;;2.63;2.42;;;26.50;50.70;;;;;;5050891;28;20040;-82
2022/05/19 09:27:09;;;;;;;3.65;3.00;;;26.60;50.80;;;;;;5050697;28;20029;-82
2022/05/19 09:29:37;;;;;;;4.90;2.97;;;26.80;50.90;;;;;;5046363;28;20029;-81
2022/05/19 09:32:13;;;;;;;6.93;3.00;;;26.80;50.80;;;;;;5045403;28;20032;-82
2022/05/19 09:34:44;;;;;;;3.65;2.85;;;27.00;51.10;;;;;;5041115;28;20033;-81
2022/05/19 09:37:14;;;;;;;5.60;2.72;;;27.20;50.60;;;;;;5045734;28;20017;-82
2022/05/19 09:40:18;;;;;;;3.15;2.53;;;27.30;49.90;;;;;;5044619;28;20091;-82
2022/05/19 09:42:49;;;;;;;9.10;2.88;;;27.30;50.10;;;;;;5022370;28;20072;-81
2022/05/19 09:45:15;;;;;;;5.03;3.30;;;27.40;50.10;;;;;;5045697;28;20041;-82
2022/05/19 09:47:45;;;;;;;6.22;2.58;;;27.50;50.20;;;;;;5043943;28;20260;-82
2022/05/19 09:50:17;;;;;;;5.03;2.17;;;27.60;50.00;;;;;;5042968;28;20022;-82
2022/05/19 09:52:44;;;;;;;4.43;2.70;;;27.60;50.00;;;;;;5049157;28;20148;-81
2022/05/19 09:55:13;;;;;;;5.05;2.78;;;27.90;50.00;;;;;;5051909;28;20025;-80
2022/05/19 09:57:51;;;;;;;5.40;2.47;;;28.00;49.40;;;;;;5050854;28;20041;-81
2022/05/19 10:00:32;;;;;;;3.75;2.83;;;28.10;49.20;;;;;;5050499;28;20026;-82
2022/05/19 10:03:00;;;;;;;4.40;2.63;;;28.20;49.40;;;;;;5043428;28;20071;-81
2022/05/19 10:05:35;;;;;;;5.00;3.00;;;28.40;49.00;;;;;;5041011;28;20030;-81
2022/05/19 10:08:18;;;;;;;3.83;2.20;;;28.70;48.60;;;;;;5041441;28;20093;-83
2022/05/19 10:11:03;;;;;;;2.95;2.72;;;28.80;48.60;;;;;;5039663;28;20026;-83
2022/05/19 10:13:51;;;;;;;3.50;2.40;;;28.80;48.70;;;;;;5037931;28;20140;-83
2022/05/19 10:16:59;;;;;;;3.03;2.72;;;28.90;48.20;;;;;;5035416;28;20025;-81
2022/05/19 10:19:57;;;;;;;11.88;3.10;;;29.10;48.40;;;;;;5032621;28;20082;-81
2022/05/19 10:22:46;;;;;;;5.70;2.90;;;29.30;48.60;;;;;;5027499;28;20489;-79
2022/05/19 10:25:36;;;;;;;4.60;2.47;;;29.40;48.60;;;;;;5027821;28;20021;-82
2022/05/19 10:31:37;;;;;;;5.75;3.30;;;29.50;47.70;;;;;;5038353;28;20045;-82
2022/05/19 10:34:27;;;;;;;4.03;2.60;;;29.40;48.30;;;;;;5048002;28;20154;-82
2022/05/19 10:37:10;;;;;;;6.57;3.00;;;29.50;48.50;;;;;;5047865;28;20033;-82
2022/05/19 10:39:50;;;;;;;6.35;3.25;;;29.60;48.00;;;;;;5047982;28;20071;-82
2022/05/19 10:42:27;;;;;;;6.47;3.03;;;29.40;48.30;;;;;;5047882;28;20458;-80
2022/05/19 10:45:02;;;;;;;5.25;3.03;;;29.60;48.90;;;;;;5044189;28;20033;-79
2022/05/19 10:48:06;;;;;;;5.55;2.95;;;29.70;48.60;;;;;;5047421;28;20025;-79
2022/05/19 10:50:37;;;;;;;4.35;3.00;;;30.00;48.40;;;;;;5042644;28;20056;-83
2022/05/19 10:53:45;;;;;;;4.75;3.38;;;30.00;48.40;;;;;;5031938;28;20025;-81
2022/05/19 10:56:53;;;;;;;3.72;3.20;;;30.10;48.10;;;;;;5051269;28;20044;-82
2022/05/19 10:59:28;;;;;;;8.13;3.38;;;30.30;47.50;;;;;;5006484;28;20058;-81
2022/05/19 11:02:28;;;;;;;5.55;3.55;;;30.40;47.30;;;;;;5007149;28;20034;-82
2022/05/19 11:05:12;;;;;;;4.35;3.05;;;30.20;48.10;;;;;;5036814;28;20037;-82
2022/05/19 11:08:05;;;;;;;4.93;3.13;;;30.20;47.80;;;;;;5041529;28;20038;-82
2022/05/19 11:10:44;;;;;;;7.85;3.60;;;30.30;48.50;;;;;;5047598;28;20549;-81
2022/05/19 11:13:42;;;;;;;3.50;2.65;;;30.50;48.20;;;;;;5048729;28;20068;-82
2022/05/19 11:16:39;;;;;;;5.47;3.22;;;30.50;47.40;;;;;;5018464;28;20024;-83
2022/05/19 11:19:20;;;;;;;6.07;2.70;;;30.40;47.70;;;;;;5040446;28;20525;-81
2022/05/19 11:21:50;;;;;;;;;;;30.40;47.80;;;;;;5030195;28;20029;-83
2022/05/19 11:24:24;;;;;;;5.15;2.33;;;30.60;47.30;;;;;;5047628;28;19905;-81
2022/05/19 11:27:10;;;;;;;3.70;3.05;;;30.60;46.10;;;;;;5046984;28;20454;-82
2022/05/19 11:29:42;;;;;;;3.03;2.70;;;30.80;46.50;;;;;;5045922;28;20120;-83
2022/05/19 11:32:13;;;;;;;6.35;3.55;;;30.90;46.40;;;;;;5046277;28;20049;-81
2022/05/19 11:35:06;;;;;;;7.60;2.80;;;31.00;46.30;;;;;;5044664;28;20057;-83
2022/05/19 11:38:01;;;;;;;7.25;3.28;;;31.00;46.60;;;;;;5042480;28;20124;-81
2022/05/19 11:40:33;;;;;;;4.95;3.40;;;31.10;46.80;;;;;;5046562;28;20053;-82
2022/05/19 11:43:39;;;;;;;3.45;2.80;;;31.30;46.30;;;;;;5037506;28;20013;-82
2022/05/19 11:46:29;;;;;;;4.63;2.80;;;31.40;46.10;;;;;;5044195;28;20037;-82
2022/05/19 11:55:19;;;;;;;3.80;2.97;;;31.60;46.10;;;;;;5047151;28;20043;-82
2022/05/19 11:57:59;;;;;;;3.40;2.88;;;31.70;46.10;;;;;;5050578;28;20052;-81
2022/05/19 12:00:37;;;;;;;5.60;3.38;;;31.80;45.80;;;;;;5051927;28;20053;-81
2022/05/19 12:03:08;;;;;;;7.95;3.40;;;31.70;45.70;;;;;;5052254;28;20080;-81
2022/05/19 12:05:56;;;;;;;5.03;3.35;;;31.50;46.20;;;;;;5051388;28;20101;-81
2022/05/19 12:08:36;;;;;;;4.22;3.13;;;31.50;46.40;;;;;;5051705;28;20029;-81
2022/05/19 12:11:32;;;;;;;6.70;3.08;;;31.60;46.70;;;;;;5051165;28;20049;-82
2022/05/19 12:14:38;;;;;;;4.25;3.10;;;31.90;46.30;;;;;;5049750;28;20025;-81
2022/05/19 12:17:12;;;;;;;6.82;3.38;;;32.00;45.60;;;;;;5051284;28;20013;-80
2022/05/19 12:19:41;;;;;;;4.82;3.55;;;31.90;45.60;;;;;;5033705;28;20025;-80
2022/05/19 12:22:32;;;;;;;5.90;3.35;;;31.90;45.70;;;;;;5049747;28;20405;-81
2022/05/19 12:25:00;;;;;;;5.47;3.13;;;31.50;46.00;;;;;;5050853;28;20025;-80
2022/05/19 12:27:53;;;;;;;4.28;3.08;;;31.40;46.30;;;;;;5042936;28;20129;-80
2022/05/19 12:33:29;;;;;;;6.32;3.05;;;31.00;47.50;;;;;;5044154;28;20032;-80
2022/05/19 12:36:04;;;;;;;6.57;3.30;;;31.40;46.80;;;;;;5046832;28;20021;-80
2022/05/19 12:38:39;;;;;;;7.85;3.10;;;31.80;46.10;;;;;;5050207;28;20078;-80
2022/05/19 12:41:26;;;;;;;4.00;3.13;;;31.90;44.70;;;;;;5049796;28;20041;-80
2022/05/19 12:43:53;;;;;;;8.73;3.50;;;32.30;44.70;;;;;;5029698;28;20505;-79
2022/05/19 12:46:34;;;;;;;5.93;3.28;;;32.60;44.70;;;;;;5049547;28;20010;-80
2022/05/19 12:49:20;;;;;;;4.93;2.88;;;32.50;44.30;;;;;;5049777;28;20041;-80
2022/05/19 12:51:54;;;;;;;9.90;3.67;;;31.90;45.00;;;;;;5048481;28;20321;-79
2022/05/19 12:54:21;;;;;;;6.78;3.42;;;31.20;45.90;;;;;;5050842;28;20124;-79
2022/05/19 12:57:15;;;;;;;3.80;2.85;;;31.10;46.10;;;;;;5048599;28;20060;-80
2022/05/19 13:00:05;;;;;;;5.07;3.30;;;31.40;45.90;;;;;;5055321;28;20040;-80
2022/05/19 13:02:38;;;;;;;4.38;2.90;;;31.90;45.30;;;;;;5036466;28;20234;-81
2022/05/19 13:05:21;;;;;;;5.05;3.60;;;32.30;45.20;;;;;;5036878;28;20025;-79
2022/05/19 13:07:55;;;;;;;4.57;3.00;;;32.30;44.70;;;;;;5051299;28;20021;-81
2022/05/19 13:10:34;;;;;;;2.95;2.65;;;32.00;44.80;;;;;;5046876;28;20033;-79
2022/05/19 13:13:11;;;;;;;5.65;3.03;;;32.20;44.90;;;;;;5048279;28;20029;-80
2022/05/19 13:15:58;;;;;;;3.88;3.08;;;32.50;42.70;;;;;;5048769;28;20096;-80
2022/05/19 13:18:36;;;;;;;3.45;2.50;;;32.90;41.70;;;;;;5047831;28;20017;-80
2022/05/19 13:21:08;;;;;;;3.33;3.03;;;33.20;40.30;;;;;;5049812;28;20036;-79
2022/05/19 13:23:37;;;;;;;3.33;3.03;;;33.10;41.70;;;;;;5049990;28;20010;-80
2022/05/19 13:26:08;;;;;;;3.00;2.70;;;32.90;42.30;;;;;;5050801;28;20041;-80
2022/05/19 13:31:26;;;;;;;2.63;2.42;;;33.60;42.20;;;;;;5031910;28;20121;-80
2022/05/19 13:33:56;;;;;;;3.75;2.80;;;33.80;41.90;;;;;;5022673;28;20025;-79
2022/05/19 13:36:35;;;;;;;4.07;2.60;;;33.80;41.10;;;;;;5045598;28;20033;-79
2022/05/19 13:39:11;;;;;;;5.53;3.05;;;33.90;41.10;;;;;;5053516;28;20021;-80